Time;durP1;ratioP1;P1;durP2;ratioP2;P2;SDS_P1;SDS_P2;PMS_P1;PMS_P2;Temp;Humidity;BMP_temperature;BMP_pressure;BME280_temperature;BME280_humidity;BME280_pressure;Samples;Min_cycle;Max_cycle;Signal;HPM_P1;HPM_P2
2022/12/21 00:01:48;;;;;;;55.85;25.70;;;8.10;99.90;;;;;;5050007;28;20155;-66
2022/12/21 00:04:13;;;;;;;58.50;26.20;;;8.10;99.90;;;;;;5050572;28;20131;-66
2022/12/21 00:06:39;;;;;;;51.92;25.20;;;8.10;99.90;;;;;;5057999;28;20076;-66
2022/12/21 00:09:09;;;;;;;48.83;24.08;;;8.00;99.90;;;;;;5051471;28;20360;-66
2022/12/21 00:11:35;;;;;;;52.22;25.10;;;8.00;99.90;;;;;;5048185;28;20045;-65
2022/12/21 00:14:03;;;;;;;64.75;26.15;;;8.00;99.90;;;;;;5054446;28;20052;-65
2022/12/21 00:16:31;;;;;;;54.72;24.58;;;8.00;99.90;;;;;;5064797;28;20516;-66
2022/12/21 00:18:57;;;;;;;83.88;26.70;;;7.90;99.90;;;;;;5055121;28;20045;-67
2022/12/21 00:21:25;;;;;;;120.15;28.33;;;7.90;99.90;;;;;;5059451;28;20423;-66
2022/12/21 00:23:53;;;;;;;196.10;33.10;;;7.90;99.90;;;;;;5062027;28;20044;-65
2022/12/21 00:26:21;;;;;;;117.57;27.85;;;7.80;99.90;;;;;;5051970;28;20076;-66
2022/12/21 00:28:49;;;;;;;193.43;31.08;;;7.90;99.90;;;;;;5053150;28;20128;-65
2022/12/21 00:31:21;;;;;;;121.57;28.23;;;7.90;99.90;;;;;;5051923;28;20129;-65
2022/12/21 00:33:47;;;;;;;290.83;38.65;;;7.80;99.90;;;;;;5052063;28;20045;-66
2022/12/21 00:36:15;;;;;;;205.52;31.30;;;7.80;99.90;;;;;;5048828;28;20108;-65
2022/12/21 00:38:41;;;;;;;266.80;37.60;;;7.70;99.90;;;;;;5051513;28;20060;-68
2022/12/21 00:41:11;;;;;;;151.07;27.40;;;7.70;99.90;;;;;;5050130;28;20051;-65
2022/12/21 00:43:38;;;;;;;171.98;30.48;;;7.70;99.90;;;;;;5032240;28;20049;-65
2022/12/21 00:46:04;;;;;;;160.43;29.23;;;7.60;99.90;;;;;;5048322;28;20041;-68
2022/12/21 00:48:32;;;;;;;144.35;28.25;;;7.60;99.90;;;;;;5056186;28;20045;-66
2022/12/21 00:51:12;;;;;;;152.27;27.60;;;7.60;99.90;;;;;;5047603;28;20045;-66
2022/12/21 00:53:38;;;;;;;130.52;26.52;;;7.60;99.90;;;;;;5048708;28;20459;-66
2022/12/21 00:56:06;;;;;;;153.85;27.27;;;7.60;99.90;;;;;;5045311;28;20045;-68
2022/12/21 00:58:33;;;;;;;137.77;27.38;;;7.60;99.90;;;;;;5051247;28;20376;-66
2022/12/21 01:01:04;;;;;;;100.95;24.33;;;7.60;99.90;;;;;;5073943;28;20049;-66
2022/12/21 01:03:29;;;;;;;107.82;23.58;;;7.50;99.90;;;;;;5047324;28;20132;-66
2022/12/21 01:05:55;;;;;;;143.90;26.33;;;7.50;99.90;;;;;;5049875;28;20115;-66
2022/12/21 01:08:23;;;;;;;142.30;26.83;;;7.50;99.90;;;;;;5045343;28;20055;-66
2022/12/21 01:10:49;;;;;;;126.82;23.92;;;7.50;99.90;;;;;;5031532;28;20052;-67
2022/12/21 01:13:16;;;;;;;103.10;22.85;;;7.50;99.90;;;;;;5073578;28;20521;-66
2022/12/21 01:15:45;;;;;;;96.00;22.95;;;7.40;99.90;;;;;;5049853;28;20041;-67
2022/12/21 01:18:12;;;;;;;104.88;21.92;;;7.30;99.90;;;;;;5055896;28;20094;-66
2022/12/21 01:20:44;;;;;;;85.72;23.48;;;7.30;99.90;;;;;;5049104;28;20097;-68
2022/12/21 01:23:10;;;;;;;120.05;25.42;;;7.30;99.90;;;;;;5052219;28;20139;-67
2022/12/21 01:25:36;;;;;;;78.85;22.27;;;7.30;99.90;;;;;;5047014;28;20040;-66
2022/12/21 01:28:02;;;;;;;64.35;20.92;;;7.20;99.90;;;;;;5055430;28;20086;-66
2022/12/21 01:30:28;;;;;;;87.70;21.27;;;7.30;99.90;;;;;;5050488;28;20506;-66
2022/12/21 01:32:53;;;;;;;70.38;20.08;;;7.30;99.90;;;;;;5049051;28;20041;-66
2022/12/21 01:35:19;;;;;;;75.88;21.17;;;7.20;99.90;;;;;;5048051;28;20052;-66
2022/12/21 01:37:45;;;;;;;91.82;21.35;;;7.20;99.90;;;;;;5054017;28;20511;-65
2022/12/21 01:40:12;;;;;;;117.28;24.85;;;7.30;99.90;;;;;;5050034;28;20136;-65
2022/12/21 01:42:38;;;;;;;51.25;18.55;;;7.20;99.90;;;;;;5056115;28;20375;-66
2022/12/21 01:45:15;;;;;;;58.15;20.00;;;7.20;99.90;;;;;;5051331;28;20482;-67
2022/12/21 01:47:48;;;;;;;73.68;20.38;;;7.20;99.90;;;;;;5047727;28;20120;-66
2022/12/21 01:50:32;;;;;;;72.90;19.55;;;7.20;99.90;;;;;;5043501;28;20372;-65
2022/12/21 01:53:09;;;;;;;66.45;19.77;;;7.20;99.90;;;;;;5047547;28;20395;-66
2022/12/21 01:55:37;;;;;;;78.25;20.10;;;7.10;99.90;;;;;;5049714;28;20098;-65
2022/12/21 01:58:06;;;;;;;79.68;21.02;;;7.10;99.90;;;;;;5045443;28;20187;-66
2022/12/21 02:00:32;;;;;;;94.75;21.38;;;7.10;99.90;;;;;;5050714;28;20063;-66
2022/12/21 02:03:03;;;;;;;120.85;23.33;;;7.10;99.90;;;;;;5047166;28;20410;-66
2022/12/21 02:05:32;;;;;;;77.95;21.02;;;7.10;99.90;;;;;;5050166;28;20064;-66
2022/12/21 02:08:01;;;;;;;74.90;20.48;;;7.10;99.90;;;;;;5056507;28;20111;-68
2022/12/21 02:10:27;;;;;;;146.75;24.08;;;7.10;99.90;;;;;;5048904;28;20520;-67
2022/12/21 02:13:02;;;;;;;86.78;22.52;;;7.10;99.90;;;;;;5053681;28;20045;-66
2022/12/21 02:15:55;;;;;;;111.10;23.70;;;7.10;99.90;;;;;;5050312;28;20075;-66
2022/12/21 02:18:43;;;;;;;109.85;21.55;;;7.10;99.90;;;;;;5050589;28;20493;-67
2022/12/21 02:21:25;;;;;;;141.35;23.42;;;7.10;99.90;;;;;;5051770;28;20048;-66
2022/12/21 02:24:15;;;;;;;128.75;22.40;;;6.90;99.90;;;;;;5052923;28;20106;-72
2022/12/21 02:27:07;;;;;;;128.82;22.08;;;7.00;99.90;;;;;;5044731;28;20075;-65
2022/12/21 02:30:00;;;;;;;151.15;21.63;;;7.00;99.90;;;;;;5049127;28;20053;-65
2022/12/21 02:32:52;;;;;;;146.75;22.02;;;7.00;99.90;;;;;;5063634;28;20048;-65
2022/12/21 02:35:45;;;;;;;85.75;18.88;;;6.90;99.90;;;;;;5049923;28;20054;-66
2022/12/21 02:38:29;;;;;;;132.15;21.15;;;6.90;99.90;;;;;;5049205;28;20053;-66
2022/12/21 02:41:22;;;;;;;148.32;20.52;;;6.80;99.90;;;;;;5035183;28;20049;-67
2022/12/21 02:44:14;;;;;;;207.68;23.60;;;6.80;99.90;;;;;;5051763;28;20045;-68
2022/12/21 02:46:49;;;;;;;243.35;23.60;;;6.80;99.90;;;;;;5050015;28;20482;-66
2022/12/21 02:49:49;;;;;;;130.23;22.05;;;6.70;99.90;;;;;;5047670;28;20391;-67
2022/12/21 02:52:28;;;;;;;103.95;18.92;;;6.70;99.90;;;;;;5050111;28;20142;-66
2022/12/21 02:54:59;;;;;;;164.25;22.17;;;6.70;99.90;;;;;;5049549;28;20103;-66
2022/12/21 02:57:39;;;;;;;72.15;19.00;;;6.70;99.90;;;;;;5050148;28;20041;-68
2022/12/21 03:00:15;;;;;;;142.90;21.67;;;6.70;99.90;;;;;;5051852;28;20037;-66
2022/12/21 03:06:27;;;;;;;180.75;25.60;;;6.60;99.90;;;;;;5048381;28;20079;-63
2022/12/21 03:09:31;;;;;;;98.05;18.13;;;6.60;99.90;;;;;;5047999;28;20049;-65
2022/12/21 03:12:06;;;;;;;60.78;16.52;;;6.60;99.90;;;;;;5048934;28;20121;-66
2022/12/21 03:14:43;;;;;;;78.85;17.15;;;6.60;99.90;;;;;;5058440;28;20370;-65
2022/12/21 03:17:20;;;;;;;78.65;16.15;;;6.60;99.90;;;;;;5048683;28;20052;-66
2022/12/21 03:20:14;;;;;;;80.07;16.00;;;6.60;99.90;;;;;;5049898;28;20048;-66
2022/12/21 03:22:56;;;;;;;132.18;19.58;;;6.50;99.90;;;;;;5051572;28;20445;-65
2022/12/21 03:25:38;;;;;;;155.90;18.77;;;6.50;99.90;;;;;;5055634;28;20449;-66
2022/12/21 03:28:11;;;;;;;136.38;17.92;;;6.50;99.90;;;;;;5055266;28;20391;-66
2022/12/21 03:30:45;;;;;;;171.20;20.05;;;6.50;99.90;;;;;;5052899;28;20056;-66
2022/12/21 03:33:15;;;;;;;197.88;19.60;;;6.40;99.90;;;;;;5053718;28;20394;-66
2022/12/21 03:36:10;;;;;;;142.07;17.30;;;6.40;99.90;;;;;;5055137;28;20122;-66
2022/12/21 03:38:51;;;;;;;142.02;19.38;;;6.40;99.90;;;;;;5057670;28;20386;-66
2022/12/21 03:41:29;;;;;;;138.75;16.70;;;6.40;99.90;;;;;;5053759;28;20128;-66
2022/12/21 03:43:59;;;;;;;99.05;16.67;;;6.40;99.90;;;;;;5059622;28;20102;-65
2022/12/21 03:46:31;;;;;;;97.60;13.18;;;6.40;99.90;;;;;;5059586;28;20291;-66
2022/12/21 03:49:04;;;;;;;160.90;19.13;;;6.30;99.90;;;;;;5052248;28;20559;-65
2022/12/21 03:51:56;;;;;;;125.47;18.20;;;6.30;99.90;;;;;;5053734;28;20053;-66
2022/12/21 03:54:34;;;;;;;90.93;15.88;;;6.30;99.90;;;;;;5041172;28;20053;-66
2022/12/21 03:57:00;;;;;;;96.50;15.38;;;6.30;99.90;;;;;;5050865;28;20041;-66
2022/12/21 03:59:26;;;;;;;96.47;15.50;;;6.20;99.90;;;;;;5049054;28;20041;-66
2022/12/21 04:02:01;;;;;;;123.38;20.10;;;6.20;99.90;;;;;;5050842;28;20044;-66
2022/12/21 04:04:35;;;;;;;160.80;18.98;;;6.30;99.90;;;;;;5051029;28;20148;-66
2022/12/21 04:07:05;;;;;;;66.63;15.23;;;6.20;99.90;;;;;;5055184;28;20060;-66
2022/12/21 04:09:31;;;;;;;190.60;21.75;;;6.30;99.90;;;;;;5048631;28;20406;-65
2022/12/21 04:14:41;;;;;;;122.60;17.95;;;6.30;99.90;;;;;;5048217;28;20502;-65
2022/12/21 04:17:07;;;;;;;142.68;20.23;;;6.30;99.90;;;;;;5053041;28;20040;-65
2022/12/21 04:30:30;;;;;;;134.90;16.90;;;6.30;99.90;;;;;;5052475;28;20475;-66
2022/12/21 04:32:56;;;;;;;83.50;15.23;;;6.20;99.90;;;;;;5054843;28;20037;-66
2022/12/21 04:35:21;;;;;;;150.07;19.13;;;6.30;99.90;;;;;;5052616;28;20106;-66
2022/12/21 04:37:47;;;;;;;137.23;18.55;;;6.30;99.90;;;;;;5052271;28;20057;-66
2022/12/21 04:40:13;;;;;;;93.47;15.55;;;6.20;99.90;;;;;;5034754;28;20060;-65
2022/12/21 04:42:39;;;;;;;164.18;17.10;;;6.20;99.90;;;;;;5053833;28;20045;-68
2022/12/21 04:45:05;;;;;;;102.97;16.95;;;6.30;99.90;;;;;;5052207;28;20052;-66
2022/12/21 04:47:31;;;;;;;121.95;17.80;;;6.30;99.90;;;;;;5052347;28;20070;-66
2022/12/21 04:49:57;;;;;;;110.00;15.00;;;6.20;99.90;;;;;;5052593;28;20383;-67
2022/12/21 04:52:22;;;;;;;103.85;18.00;;;6.20;99.90;;;;;;5053110;28;20266;-66
2022/12/21 04:54:48;;;;;;;115.50;17.38;;;6.20;99.90;;;;;;5051076;28;20095;-67
2022/12/21 04:57:14;;;;;;;106.90;16.40;;;6.20;99.90;;;;;;5054757;28;20049;-65
2022/12/21 04:59:39;;;;;;;113.47;18.17;;;6.10;99.90;;;;;;5060008;28;20478;-65
2022/12/21 05:02:05;;;;;;;99.97;15.43;;;6.20;99.90;;;;;;5080138;28;20049;-65
2022/12/21 05:04:31;;;;;;;79.78;15.43;;;6.20;99.90;;;;;;5052037;28;20049;-66
2022/12/21 05:06:56;;;;;;;79.93;16.05;;;6.20;99.90;;;;;;5051868;28;20037;-67
2022/12/21 05:09:22;;;;;;;89.03;17.35;;;6.20;99.90;;;;;;5051690;28;20095;-66
2022/12/21 05:11:48;;;;;;;94.13;16.17;;;6.20;99.90;;;;;;5051225;28;20096;-66
2022/12/21 05:14:14;;;;;;;102.05;16.52;;;6.20;99.90;;;;;;5050935;28;20049;-65
2022/12/21 05:16:40;;;;;;;158.07;20.83;;;6.20;99.90;;;;;;5051618;28;20135;-67
2022/12/21 05:19:05;;;;;;;135.85;19.20;;;6.20;99.90;;;;;;5050424;28;20052;-68
2022/12/21 05:21:31;;;;;;;87.95;16.25;;;6.20;99.90;;;;;;5055024;28;20524;-66
2022/12/21 05:23:57;;;;;;;84.47;15.77;;;6.20;99.90;;;;;;5056776;28;20052;-65
2022/12/21 05:26:23;;;;;;;86.63;16.80;;;6.10;99.90;;;;;;5050470;28;20058;-65
2022/12/21 05:28:49;;;;;;;95.57;14.80;;;6.20;99.90;;;;;;5050067;28;20494;-65
2022/12/21 05:31:16;;;;;;;78.47;14.80;;;6.20;99.90;;;;;;5067367;28;20065;-68
2022/12/21 05:33:42;;;;;;;75.65;11.90;;;6.20;99.90;;;;;;5035817;28;20048;-66
2022/12/21 05:36:10;;;;;;;88.10;14.73;;;6.20;99.90;;;;;;5056809;28;20044;-66
2022/12/21 05:38:36;;;;;;;83.07;14.15;;;6.20;99.90;;;;;;5051508;28;20067;-66
2022/12/21 05:41:02;;;;;;;95.38;13.07;;;6.20;99.90;;;;;;5051723;28;20493;-66
2022/12/21 05:43:28;;;;;;;145.95;16.15;;;6.20;99.90;;;;;;5051299;28;20053;-66
2022/12/21 05:45:59;;;;;;;65.13;12.18;;;6.20;99.90;;;;;;5052218;28;20052;-67
2022/12/21 05:48:24;;;;;;;84.93;14.02;;;6.10;99.90;;;;;;5048975;28;20056;-66
2022/12/21 05:50:50;;;;;;;76.03;11.32;;;6.10;99.90;;;;;;5049579;28;20041;-67
2022/12/21 05:53:16;;;;;;;84.47;14.55;;;6.20;99.90;;;;;;5049111;28;20434;-68
2022/12/21 05:55:44;;;;;;;86.95;12.52;;;6.20;99.90;;;;;;5044035;28;20072;-66
2022/12/21 05:58:12;;;;;;;95.82;14.80;;;6.20;99.90;;;;;;5053520;28;20045;-66
2022/12/21 06:00:38;;;;;;;66.97;13.10;;;6.20;99.90;;;;;;5048842;28;20045;-66
2022/12/21 06:03:04;;;;;;;70.95;12.80;;;6.20;99.90;;;;;;5049795;28;20048;-65
2022/12/21 06:05:30;;;;;;;68.70;12.95;;;6.20;99.90;;;;;;5048161;28;20049;-68
2022/12/21 06:07:56;;;;;;;96.15;13.43;;;6.10;99.90;;;;;;5049433;28;20427;-65
2022/12/21 06:10:22;;;;;;;82.35;14.18;;;6.20;99.90;;;;;;5050633;28;20120;-66
2022/12/21 06:12:47;;;;;;;54.58;11.35;;;6.20;99.90;;;;;;5052740;28;20086;-66
2022/12/21 06:15:13;;;;;;;89.32;13.48;;;6.10;99.90;;;;;;5056794;28;20049;-69
2022/12/21 06:17:39;;;;;;;71.10;13.32;;;6.20;99.90;;;;;;5050214;28;20159;-68
2022/12/21 06:20:06;;;;;;;65.80;14.23;;;6.10;99.90;;;;;;5055065;28;20097;-66
2022/12/21 06:22:35;;;;;;;60.55;13.13;;;6.20;99.90;;;;;;5057148;28;20044;-67
2022/12/21 06:25:04;;;;;;;59.88;12.82;;;6.10;99.90;;;;;;5057510;28;20099;-67
2022/12/21 06:27:30;;;;;;;66.53;12.27;;;6.10;99.90;;;;;;5058844;28;20454;-66
2022/12/21 06:29:56;;;;;;;89.03;13.85;;;6.10;99.90;;;;;;5047312;28;20091;-66
2022/12/21 06:32:21;;;;;;;66.60;13.55;;;6.10;99.90;;;;;;5052827;28;20053;-66
2022/12/21 06:34:47;;;;;;;88.10;14.25;;;6.10;99.90;;;;;;5049834;28;20113;-68
2022/12/21 06:37:13;;;;;;;98.40;14.40;;;6.10;99.90;;;;;;5049489;28;20048;-67
2022/12/21 06:39:38;;;;;;;85.15;15.27;;;6.10;99.90;;;;;;5056580;28;20045;-66
2022/12/21 06:42:04;;;;;;;138.75;16.25;;;6.10;99.90;;;;;;5040971;28;20045;-66
2022/12/21 06:44:30;;;;;;;66.43;13.63;;;6.10;99.90;;;;;;5043760;28;20055;-66
2022/12/21 06:46:55;;;;;;;68.68;13.25;;;6.10;99.90;;;;;;5049820;28;20044;-67
2022/12/21 06:49:21;;;;;;;73.22;15.40;;;6.10;99.90;;;;;;5042855;28;20376;-67
2022/12/21 06:51:47;;;;;;;73.55;13.68;;;6.10;99.90;;;;;;5045880;28;20047;-66
2022/12/21 06:54:12;;;;;;;50.72;13.18;;;6.10;99.90;;;;;;5039243;28;20045;-66
2022/12/21 06:56:38;;;;;;;62.70;14.98;;;6.10;99.90;;;;;;5036612;28;20045;-68
2022/12/21 06:59:04;;;;;;;53.55;14.38;;;6.00;99.90;;;;;;5045063;28;20044;-66
2022/12/21 07:01:33;;;;;;;45.42;13.15;;;6.00;99.90;;;;;;5040943;28;20045;-66
2022/12/21 07:03:59;;;;;;;49.38;12.52;;;6.10;99.90;;;;;;5045186;28;20341;-66
2022/12/21 07:06:27;;;;;;;46.60;13.77;;;6.10;99.90;;;;;;5054214;28;20041;-66
2022/12/21 07:08:53;;;;;;;65.47;16.17;;;6.10;99.90;;;;;;5045018;28;20038;-66
2022/12/21 07:11:24;;;;;;;58.85;14.18;;;6.10;99.90;;;;;;5039284;28;20053;-66
2022/12/21 07:13:52;;;;;;;45.15;13.68;;;6.10;99.90;;;;;;5037321;28;20048;-66
2022/12/21 07:16:18;;;;;;;61.60;14.90;;;6.10;99.90;;;;;;5052822;28;20755;-66
2022/12/21 07:18:44;;;;;;;53.50;14.25;;;6.10;99.90;;;;;;5053526;28;20406;-66
2022/12/21 07:21:15;;;;;;;64.80;15.07;;;6.20;99.90;;;;;;5053874;28;20044;-65
2022/12/21 07:23:41;;;;;;;54.97;13.55;;;6.10;99.90;;;;;;5053938;28;20459;-74
2022/12/21 07:26:10;;;;;;;53.90;15.60;;;6.10;99.90;;;;;;5052675;28;20041;-67
2022/12/21 07:28:36;;;;;;;54.25;15.40;;;6.00;99.90;;;;;;5053431;28;20057;-65
2022/12/21 07:31:04;;;;;;;43.42;14.68;;;6.10;99.90;;;;;;5051421;28;20132;-67
2022/12/21 07:33:30;;;;;;;60.83;15.82;;;6.10;99.90;;;;;;5052601;28;20434;-65
2022/12/21 07:36:01;;;;;;;65.15;15.82;;;6.10;99.90;;;;;;5052016;28;20055;-67
2022/12/21 07:38:27;;;;;;;73.10;17.73;;;6.10;99.90;;;;;;5048358;28;20046;-68
2022/12/21 07:40:56;;;;;;;59.05;17.65;;;6.20;99.90;;;;;;5047003;28;20033;-67
2022/12/21 07:43:22;;;;;;;73.40;17.45;;;6.20;99.90;;;;;;5053591;28;20053;-68
2022/12/21 07:45:48;;;;;;;65.63;19.38;;;6.20;99.90;;;;;;5043280;28;20045;-68
2022/12/21 07:48:13;;;;;;;77.65;21.27;;;6.20;99.90;;;;;;5040151;28;20052;-71
2022/12/21 07:50:39;;;;;;;80.13;21.45;;;6.30;99.90;;;;;;5045007;28;20167;-68
2022/12/21 07:53:05;;;;;;;63.10;19.60;;;6.30;99.90;;;;;;5044459;28;20092;-68
2022/12/21 07:55:31;;;;;;;58.17;19.42;;;6.30;99.90;;;;;;5046120;28;20060;-69
2022/12/21 07:57:57;;;;;;;65.75;19.45;;;6.30;99.90;;;;;;5039122;28;20045;-68
2022/12/21 08:00:23;;;;;;;61.70;21.70;;;6.30;99.90;;;;;;5042952;28;20087;-68
2022/12/21 08:02:50;;;;;;;60.72;21.02;;;6.30;99.90;;;;;;5036987;28;20052;-71
2022/12/21 08:05:19;;;;;;;64.45;23.13;;;6.30;99.90;;;;;;5043014;28;20457;-67
2022/12/21 08:07:46;;;;;;;77.28;23.65;;;6.30;99.90;;;;;;5036117;28;20100;-67
2022/12/21 08:10:13;;;;;;;76.55;24.58;;;6.30;99.90;;;;;;5040036;28;20077;-68
2022/12/21 08:12:39;;;;;;;59.25;21.55;;;6.30;99.90;;;;;;5037079;28;20081;-66
2022/12/21 08:15:05;;;;;;;59.53;21.55;;;6.30;99.90;;;;;;5044219;28;20190;-66
2022/12/21 08:17:31;;;;;;;64.13;21.05;;;6.30;99.90;;;;;;5044836;28;20040;-67
2022/12/21 08:19:56;;;;;;;55.28;17.60;;;6.30;99.90;;;;;;5052834;28;20045;-67
2022/12/21 08:22:23;;;;;;;45.97;20.00;;;6.30;99.90;;;;;;5046018;28;20132;-67
2022/12/21 08:24:49;;;;;;;52.45;20.13;;;6.30;99.90;;;;;;5036052;28;20064;-68
2022/12/21 08:27:15;;;;;;;56.92;19.92;;;6.30;99.90;;;;;;5045479;28;20111;-67
2022/12/21 08:29:41;;;;;;;70.95;21.98;;;6.30;99.90;;;;;;5042775;28;20064;-67
2022/12/21 08:32:07;;;;;;;62.20;22.30;;;6.30;99.90;;;;;;5041683;28;20088;-66
2022/12/21 08:34:32;;;;;;;47.42;16.95;;;6.30;99.90;;;;;;5046669;28;20077;-67
2022/12/21 08:36:58;;;;;;;51.13;20.17;;;6.30;99.90;;;;;;5016390;28;20060;-67
2022/12/21 08:39:24;;;;;;;56.08;21.05;;;6.40;99.90;;;;;;5049690;28;20041;-66
2022/12/21 08:41:50;;;;;;;55.97;20.00;;;6.30;99.90;;;;;;5049881;28;20048;-67
2022/12/21 08:44:16;;;;;;;57.15;16.58;;;6.30;99.90;;;;;;5047884;28;20041;-67
2022/12/21 08:46:41;;;;;;;86.72;22.00;;;6.30;99.90;;;;;;5048761;28;20094;-67
2022/12/21 08:49:07;;;;;;;59.15;22.27;;;6.30;99.90;;;;;;5034517;28;20399;-67
2022/12/21 08:51:34;;;;;;;73.88;21.83;;;6.30;99.90;;;;;;5050158;28;20051;-69
2022/12/21 08:54:00;;;;;;;72.68;21.50;;;6.30;99.90;;;;;;5046645;28;20102;-69
2022/12/21 08:56:26;;;;;;;91.95;23.00;;;6.30;99.90;;;;;;5049577;28;20041;-67
2022/12/21 08:58:52;;;;;;;78.90;23.38;;;6.30;99.90;;;;;;5045839;28;20491;-67
2022/12/21 09:01:19;;;;;;;96.55;25.13;;;6.30;99.90;;;;;;5049285;28;20889;-68
2022/12/21 09:03:45;;;;;;;82.03;22.63;;;6.40;99.90;;;;;;5050064;28;20501;-68
2022/12/21 09:06:11;;;;;;;78.75;22.58;;;6.40;99.90;;;;;;5049490;28;20078;-68
2022/12/21 09:08:37;;;;;;;66.55;22.42;;;6.40;99.90;;;;;;5046983;28;20041;-68
2022/12/21 09:11:12;;;;;;;52.28;22.60;;;6.40;99.90;;;;;;5049471;28;20036;-68
2022/12/21 09:13:38;;;;;;;63.00;23.52;;;6.40;99.90;;;;;;5043583;28;20049;-68
2022/12/21 09:16:15;;;;;;;59.65;22.13;;;6.50;99.90;;;;;;5046832;28;20056;-69
2022/12/21 09:18:41;;;;;;;59.13;24.60;;;6.50;99.90;;;;;;5034764;28;20056;-68
2022/12/21 09:21:08;;;;;;;58.88;23.38;;;6.50;99.90;;;;;;5048508;28;20045;-67
2022/12/21 09:23:33;;;;;;;73.20;26.15;;;6.50;99.90;;;;;;5041874;28;20056;-68
2022/12/21 09:25:59;;;;;;;57.22;23.52;;;6.50;99.90;;;;;;5042569;28;20125;-67
2022/12/21 09:28:25;;;;;;;61.22;23.33;;;6.60;99.90;;;;;;5038183;28;20100;-69
2022/12/21 09:30:51;;;;;;;58.75;22.85;;;6.60;99.90;;;;;;5043184;28;20061;-66
2022/12/21 09:33:16;;;;;;;53.25;22.80;;;6.60;99.90;;;;;;5044091;28;20043;-67
2022/12/21 09:35:42;;;;;;;48.33;21.98;;;6.70;99.90;;;;;;5041981;28;20127;-66
2022/12/21 09:38:08;;;;;;;50.28;22.20;;;6.70;99.90;;;;;;5047886;28;21160;-66
2022/12/21 09:40:34;;;;;;;56.58;22.73;;;6.70;99.90;;;;;;5037609;28;20045;-68
2022/12/21 09:43:14;;;;;;;51.15;20.45;;;6.70;99.90;;;;;;5042987;28;20095;-66
2022/12/21 09:45:49;;;;;;;57.70;22.40;;;6.80;99.90;;;;;;5046146;28;20045;-66
2022/12/21 09:48:17;;;;;;;;;;;6.80;99.90;;;;;;5050579;28;20040;-66
2022/12/21 09:51:09;;;;;;;51.90;21.75;;;6.80;99.90;;;;;;5046453;28;19960;-66
2022/12/21 09:54:06;;;;;;;47.67;20.88;;;6.80;99.90;;;;;;5039768;28;20068;-68
2022/12/21 09:56:38;;;;;;;46.63;18.52;;;6.90;99.90;;;;;;5040911;28;20183;-68
2022/12/21 09:59:04;;;;;;;53.53;22.52;;;6.90;99.90;;;;;;5044574;28;20129;-68
2022/12/21 10:01:32;;;;;;;60.20;23.70;;;6.90;99.90;;;;;;5041736;28;20049;-68
2022/12/21 10:04:14;;;;;;;55.75;23.33;;;6.90;99.90;;;;;;5042758;28;20048;-69
2022/12/21 10:06:57;;;;;;;56.78;22.98;;;6.90;99.90;;;;;;5045325;28;20146;-69
2022/12/21 10:09:45;;;;;;;59.80;23.27;;;6.90;99.90;;;;;;5079345;28;20049;-68
2022/12/21 10:12:25;;;;;;;51.80;21.40;;;7.00;99.90;;;;;;5040126;28;20095;-68
2022/12/21 10:15:26;;;;;;;52.28;21.42;;;7.00;99.90;;;;;;5039881;28;20079;-68
2022/12/21 10:18:04;;;;;;;54.05;23.10;;;7.00;99.90;;;;;;5042667;28;20112;-71
2022/12/21 10:20:42;;;;;;;67.78;23.10;;;7.10;99.90;;;;;;5081449;28;20115;-69
2022/12/21 10:23:32;;;;;;;63.15;25.02;;;7.10;99.90;;;;;;5033981;28;20042;-68
2022/12/21 10:26:02;;;;;;;54.75;21.70;;;7.10;99.90;;;;;;5044855;28;20037;-69
2022/12/21 10:28:40;;;;;;;50.45;22.67;;;7.10;99.90;;;;;;5046948;28;20052;-69
2022/12/21 10:31:12;;;;;;;51.97;24.13;;;7.10;99.90;;;;;;5042632;28;20057;-68
2022/12/21 10:33:41;;;;;;;52.10;23.98;;;7.20;99.90;;;;;;5050131;28;20057;-68
2022/12/21 10:36:16;;;;;;;44.75;24.45;;;7.20;99.90;;;;;;5049816;28;20076;-73
2022/12/21 10:38:42;;;;;;;47.65;20.15;;;7.20;99.90;;;;;;5028059;28;20049;-71
2022/12/21 10:41:15;;;;;;;48.45;22.75;;;7.20;99.90;;;;;;5046484;28;20054;-69
2022/12/21 10:43:41;;;;;;;51.30;22.00;;;7.30;99.90;;;;;;5046973;28;20076;-69
2022/12/21 10:46:07;;;;;;;46.92;23.45;;;7.30;99.90;;;;;;5036492;28;20482;-70
2022/12/21 10:48:33;;;;;;;44.22;22.02;;;7.40;99.90;;;;;;5040256;28;20048;-71
2022/12/21 10:51:28;;;;;;;49.20;23.10;;;7.30;99.90;;;;;;5048602;28;20037;-69
2022/12/21 10:54:03;;;;;;;46.38;22.70;;;7.30;99.90;;;;;;5043055;28;20097;-68
2022/12/21 10:56:30;;;;;;;;;;;7.30;99.90;;;;;;5036083;28;20049;-67
2022/12/21 10:59:26;;;;;;;50.63;21.60;;;7.30;99.90;;;;;;5045097;28;19924;-68
2022/12/21 11:01:53;;;;;;;38.67;21.35;;;7.20;99.90;;;;;;5039633;28;20056;-69
2022/12/21 11:04:21;;;;;;;38.22;22.52;;;7.30;99.90;;;;;;5035432;28;20205;-69
2022/12/21 11:06:59;;;;;;;37.28;19.23;;;7.20;99.90;;;;;;5048879;28;20608;-68
2022/12/21 11:09:38;;;;;;;41.00;21.52;;;7.30;99.90;;;;;;5036838;28;20041;-68
2022/12/21 11:12:23;;;;;;;44.92;20.13;;;7.30;99.90;;;;;;5050616;28;20122;-70
2022/12/21 11:14:51;;;;;;;39.65;20.73;;;7.30;99.90;;;;;;5049412;28;20080;-69
2022/12/21 11:17:28;;;;;;;37.47;20.27;;;7.30;99.90;;;;;;5048422;28;20044;-76
2022/12/21 11:20:13;;;;;;;38.83;21.77;;;7.40;99.90;;;;;;5081987;28;20048;-71
2022/12/21 11:22:43;;;;;;;41.53;21.67;;;7.30;99.90;;;;;;5028514;28;20142;-69
2022/12/21 11:25:17;;;;;;;42.47;21.05;;;7.30;99.90;;;;;;5082253;28;20041;-73
2022/12/21 11:27:48;;;;;;;39.28;21.05;;;7.30;99.90;;;;;;5042624;28;20080;-71
2022/12/21 11:30:26;;;;;;;41.88;20.27;;;7.40;99.90;;;;;;5038541;28;20515;-69
2022/12/21 11:32:54;;;;;;;43.38;18.77;;;7.40;99.90;;;;;;5048748;28;20522;-69
2022/12/21 11:35:23;;;;;;;38.50;19.67;;;7.40;99.90;;;;;;5048425;28;20099;-77
2022/12/21 11:38:14;;;;;;;43.75;20.20;;;7.40;99.90;;;;;;5046749;28;20045;-75
2022/12/21 11:40:54;;;;;;;40.08;18.88;;;7.60;99.90;;;;;;5030025;28;20049;-68
2022/12/21 11:43:20;;;;;;;42.22;19.17;;;7.60;99.90;;;;;;5048238;28;20049;-70
2022/12/21 11:45:54;;;;;;;40.58;18.55;;;7.70;99.90;;;;;;5043413;28;20033;-69
2022/12/21 11:48:42;;;;;;;45.70;19.13;;;7.70;99.90;;;;;;5045694;28;20099;-69
2022/12/21 11:51:36;;;;;;;38.60;19.00;;;7.70;99.90;;;;;;5041847;28;20513;-68
2022/12/21 11:54:38;;;;;;;40.42;17.95;;;7.70;99.90;;;;;;5048086;28;20449;-67
2022/12/21 11:57:27;;;;;;;45.25;17.80;;;7.80;99.90;;;;;;5052825;28;20155;-68
2022/12/21 12:00:03;;;;;;;42.30;17.80;;;7.80;99.90;;;;;;5070187;28;20479;-69
2022/12/21 12:02:35;;;;;;;41.15;17.98;;;7.80;99.90;;;;;;5048654;28;20390;-68
2022/12/21 12:05:00;;;;;;;41.50;15.52;;;7.90;99.90;;;;;;5050206;28;20075;-69
2022/12/21 12:07:50;;;;;;;37.05;16.13;;;7.90;99.90;;;;;;5046742;28;20049;-75
2022/12/21 12:10:25;;;;;;;35.33;15.85;;;7.90;99.90;;;;;;5047976;28;20140;-69
2022/12/21 12:13:06;;;;;;;;;;;7.90;99.90;;;;;;5041410;28;20052;-70
2022/12/21 12:16:12;;;;;;;35.40;16.65;;;8.00;99.90;;;;;;5041699;28;19944;-69
2022/12/21 12:19:01;;;;;;;36.53;15.00;;;8.00;99.90;;;;;;5049567;28;20481;-69
2022/12/21 12:21:45;;;;;;;36.33;15.55;;;8.00;99.90;;;;;;5040732;28;20131;-77
2022/12/21 12:24:40;;;;;;;34.53;15.25;;;8.00;99.90;;;;;;5047520;28;20492;-69
2022/12/21 12:27:20;;;;;;;38.93;16.00;;;8.10;99.90;;;;;;5043207;28;20060;-68
2022/12/21 12:30:30;;;;;;;31.15;13.10;;;8.10;99.90;;;;;;5040359;28;20578;-68
2022/12/21 12:33:12;;;;;;;38.25;13.38;;;8.10;99.90;;;;;;5021627;28;20111;-70
2022/12/21 12:35:49;;;;;;;32.45;13.95;;;8.20;99.90;;;;;;5047039;28;20464;-67
2022/12/21 12:38:36;;;;;;;31.17;14.27;;;8.30;99.90;;;;;;5045187;28;20543;-67
2022/12/21 12:41:10;;;;;;;35.67;14.75;;;8.30;99.90;;;;;;5043499;28;20390;-68
2022/12/21 12:43:47;;;;;;;31.25;13.88;;;8.30;99.90;;;;;;5042560;28;20119;-72
2022/12/21 12:46:34;;;;;;;33.05;13.65;;;8.30;99.90;;;;;;5048033;28;20055;-67
2022/12/21 12:49:39;;;;;;;33.30;13.90;;;8.30;99.90;;;;;;5049239;28;20044;-67
2022/12/21 12:52:22;;;;;;;34.63;13.73;;;8.40;99.90;;;;;;5043614;28;20063;-67
2022/12/21 12:55:21;;;;;;;30.02;13.00;;;8.40;99.90;;;;;;5049802;28;20102;-71
2022/12/21 12:58:15;;;;;;;37.75;13.35;;;8.40;99.90;;;;;;5038990;28;20087;-68
2022/12/21 13:01:18;;;;;;;29.58;13.45;;;8.40;99.90;;;;;;5029245;28;20061;-69
2022/12/21 13:04:10;;;;;;;38.00;14.05;;;8.40;99.90;;;;;;5034116;28;20065;-69
2022/12/21 13:06:52;;;;;;;30.00;12.90;;;8.40;99.90;;;;;;5053849;28;20465;-71
2022/12/21 13:09:23;;;;;;;34.58;13.18;;;8.40;99.90;;;;;;5040068;28;20078;-70
2022/12/21 13:12:12;;;;;;;31.45;11.80;;;8.40;99.90;;;;;;5040236;28;20087;-74
2022/12/21 13:14:52;;;;;;;28.52;12.93;;;8.40;99.90;;;;;;5039243;28;20045;-69
2022/12/21 13:17:38;;;;;;;40.00;15.10;;;8.40;99.90;;;;;;5047048;28;20047;-70
2022/12/21 13:20:07;;;;;;;36.03;14.35;;;8.40;99.90;;;;;;5040044;28;20045;-69